Flight Track Log - Related Links

Times and Time Zones

All times are in EDT time to prevent confusion due to time zone crossing. See the THY2807 flight status page for this flight to view local times or setup timezone preferences in your user account.

Time Position Orientation Groundspeed Altitude Reporting Facility
EDT Latitude Longitude Course Direction KTS MPH feet Rate Location/Type
Sun 02:53:15 AM 41.2542 36.5346 270° West  Level Estimated
Sun 02:54:15 AM 41.2538 36.4029 270° West  Level Estimated
Sun 02:55:15 AM 41.2533 36.2713 270° West  Level Estimated
Sun 02:56:15 AM 41.2525 36.1396 270° West  Level Estimated
Sun 02:57:15 AM 41.2517 36.0079 269° West  Level Estimated
Sun 02:58:15 AM 41.2507 35.8762 269° West  Level Estimated
Sun 02:59:15 AM 41.2495 35.7446 269° West  Level Estimated
Sun 03:00:15 AM 41.2482 35.6129 269° West  Level Estimated
Sun 03:01:15 AM 41.2468 35.4813 269° West  Level Estimated
Sun 03:02:15 AM 41.2452 35.3496 269° West  Level Estimated
Sun 03:03:15 AM 41.2435 35.2180 269° West  Level Estimated
Sun 03:04:15 AM 41.2416 35.0863 269° West  Level Estimated
Sun 03:05:15 AM 41.2395 34.9547 269° West  Level Estimated
Sun 03:06:15 AM 41.2373 34.8231 269° West  Level Estimated
Sun 03:07:15 AM 41.2350 34.6915 269° West  Level Estimated
Sun 03:08:15 AM 41.2324 34.5599 269° West  Level Estimated
Sun 03:09:15 AM 41.2298 34.4283 268° West  Level Estimated
Sun 03:10:15 AM 41.2270 34.2967 268° West  Level Estimated
Sun 03:11:15 AM 41.2240 34.1651 268° West  Level Estimated
Sun 03:12:15 AM 41.2210 34.0336 268° West  Level Estimated
Sun 03:13:15 AM 41.2177 33.9020 268° West  Level Estimated
Sun 03:14:15 AM 41.2143 33.7705 268° West  Level Estimated
Sun 03:15:15 AM 41.2108 33.6390 268° West  Level Estimated
Sun 03:16:15 AM 41.2071 33.5075 268° West  Level Estimated
Sun 03:17:15 AM 41.2032 33.3760 268° West  Level Estimated
Sun 03:18:15 AM 41.1992 33.2445 268° West  Level Estimated
Sun 03:19:15 AM 41.1950 33.1131 268° West  Level Estimated
Sun 03:20:15 AM 41.1908 32.9817 267° West  Level Estimated
Sun 03:21:15 AM 41.1863 32.8502 267° West  Level Estimated
Sun 03:22:15 AM 41.1817 32.7188 267° West  Level Estimated
Sun 03:23:15 AM 41.1769 32.5874 267° West  Level Estimated
Sun 03:24:15 AM 41.1721 32.4561 267° West  Level Estimated
Sun 03:25:15 AM 41.1670 32.3247 267° West  Level Estimated
Sun 03:26:15 AM 41.1618 32.1934 267° West  Level Estimated
Sun 03:27:15 AM 41.1565 32.0621 267° West  Level Estimated
Sun 03:28:15 AM 41.1510 31.9308 267° West  Level Estimated
Sun 03:29:15 AM 41.1454 31.7996 267° West  Level Estimated
Sun 03:30:15 AM 41.1396 31.6684 267° West  Level Estimated
Sun 03:31:15 AM 41.1336 31.5371 267° West  Level Estimated
Sun 03:32:15 AM 41.1275 31.4060 266° West  Level Estimated
Sun 03:33:15 AM 41.1213 31.2748 266° West  Level Estimated
Sun 03:34:15 AM 41.1149 31.1437 266° West  Level Estimated
Sun 03:35:15 AM 41.1084 31.0126 266° West  Level Estimated
Sun 03:36:15 AM 41.1017 30.8815 266° West  Level Estimated
Sun 03:37:15 AM 41.0948 30.7504 266° West  Level Estimated
Sun 03:38:15 AM 41.0879 30.6194 266° West  Level Estimated
Sun 03:39:15 AM 41.0807 30.4884 266° West  Level Estimated
Sun 03:40:15 AM 41.0735 30.3574 266° West  Level Estimated
Sun 03:41:15 AM 41.0660 30.2265 266° West  Level Estimated
Sun 03:42:15 AM 41.0585 30.0956 266° West  Level Estimated
Sun 03:43:15 AM 41.0507 29.9647 265° West  Level Estimated
Sun 03:44:15 AM 41.0429 29.8338 265° West  Level Estimated
Sun 03:45:15 AM 41.0349 29.7030 265° West  Level Estimated
Sun 03:46:15 AM 41.0267 29.5722 265° West  Level Estimated
Sun 03:47:15 AM 41.0184 29.4415 265° West  Level Estimated
Sun 03:48:15 AM 41.0099 29.3107 265° West  Level Estimated
Sun 03:49:15 AM 41.0013 29.1800 265° West  Level Estimated
Sun 03:50:15 AM 40.9925 29.0494 265° West  Level Estimated
Sun 03:51:15 AM 40.9837 28.9188 265° West  Level Estimated
Sun 03:52:15 AM 40.9746 28.7882 85° East  Level Estimated
Sun 03:53:15 AM 40.9836 28.9188 265° West  Level Estimated
Sun 03:54:15 AM 40.9746 28.7882 85° East  Level Estimated
Sun 03:55:15 AM 40.9836 28.9188 265° West  Level Estimated
Sun 03:56:15 AM 40.9746 28.7882 85° East  Level Estimated
Sun 03:57:15 AM 40.9836 28.9188 265° West  Level Estimated
Sun 03:58:15 AM 40.9746 28.7882 85° East  Level Estimated
Sun 03:59:15 AM 40.9836 28.9188 265° West  Level Estimated
Sun 04:00:15 AM 40.9746 28.7882 85° East  Level Estimated
Sun 04:01:15 AM 40.9836 28.9188 265° West  Level Estimated
Sun 04:02:15 AM 40.9746 28.7882 85° East  Level Estimated
Sun 04:03:15 AM 40.9836 28.9188 265° West  Level Estimated
Sun 04:04:15 AM 40.9746 28.7882 85° East  Level Estimated
Sun 04:05:15 AM 40.9836 28.9188 265° West  Level Estimated
Sun 04:06:15 AM 40.9746 28.7882 85° East  Level Estimated
Sun 04:07:15 AM 40.9836 28.9188 85° East  Level Estimated

Login

Don't have an account? Register now (free) for customized features, flight alerts, and more!